createdAt,value
2023-04-10T00:01:19.967Z,84.20
2023-04-10T00:06:28.685Z,84.20
2023-04-10T00:08:55.536Z,84.70
2023-04-10T00:11:24.852Z,84.80
2023-04-10T00:13:56.157Z,84.50
2023-04-10T00:16:23.007Z,84.60
2023-04-10T00:18:49.670Z,84.70
2023-04-10T00:21:23.274Z,85.00
2023-04-10T00:23:50.067Z,85.30
2023-04-10T00:26:21.281Z,85.30
2023-04-10T00:28:53.357Z,85.40
2023-04-10T00:31:20.348Z,85.10
2023-04-10T00:33:48.675Z,85.40
2023-04-10T00:36:15.994Z,85.70
2023-04-10T00:38:42.796Z,85.70
2023-04-10T00:41:09.678Z,85.50
2023-04-10T00:43:36.441Z,85.90
2023-04-10T00:46:05.015Z,85.70
2023-04-10T00:48:31.874Z,85.70
2023-04-10T00:50:58.689Z,85.60
2023-04-10T00:53:25.453Z,85.70
2023-04-10T00:55:53.014Z,85.90
2023-04-10T00:58:19.707Z,86.50
2023-04-10T01:00:47.699Z,87.20
2023-04-10T01:03:17.050Z,87.10
2023-04-10T01:06:10.768Z,87.40
2023-04-10T01:08:52.525Z,88.40
2023-04-10T01:11:25.002Z,88.60
2023-04-10T01:14:07.367Z,88.60
2023-04-10T01:16:55.586Z,89.10
2023-04-10T01:19:28.389Z,89.30
2023-04-10T01:21:56.766Z,89.10
2023-04-10T01:24:44.475Z,89.10
2023-04-10T01:27:46.862Z,89.20
2023-04-10T01:30:20.361Z,89.00
2023-04-10T01:32:48.234Z,89.00
2023-04-10T01:35:16.250Z,89.50
2023-04-10T01:37:47.213Z,89.20
2023-04-10T01:40:16.407Z,89.70
2023-04-10T01:42:47.506Z,90.00
2023-04-10T01:45:19.936Z,90.00
2023-04-10T01:47:47.467Z,89.70
2023-04-10T01:50:15.444Z,90.20
2023-04-10T01:52:43.940Z,90.00
2023-04-10T01:55:11.038Z,90.20
2023-04-10T01:57:37.873Z,90.10
2023-04-10T02:00:05.103Z,90.10
2023-04-10T02:02:35.168Z,90.10
2023-04-10T02:05:02.332Z,90.00
2023-04-10T02:07:36.851Z,90.10
2023-04-10T02:10:16.639Z,90.00
2023-04-10T02:12:53.851Z,90.20
2023-04-10T02:15:23.693Z,90.30
2023-04-10T02:17:51.911Z,90.40
2023-04-10T02:20:18.937Z,90.20
2023-04-10T02:22:46.578Z,90.40
2023-04-10T02:25:13.743Z,90.40
2023-04-10T02:27:40.962Z,90.30
2023-04-10T02:30:08.242Z,90.30
2023-04-10T02:32:35.216Z,90.40
2023-04-10T02:35:02.957Z,90.40
2023-04-10T02:37:30.655Z,90.40
2023-04-10T02:39:57.386Z,90.60
2023-04-10T02:42:24.098Z,91.00
2023-04-10T02:44:50.858Z,91.10
2023-04-10T02:47:18.638Z,91.10
2023-04-10T02:49:45.665Z,91.10
2023-04-10T02:52:12.445Z,91.10
2023-04-10T02:54:40.257Z,91.10
2023-04-10T02:57:07.043Z,91.20
2023-04-10T02:59:34.008Z,91.20
2023-04-10T03:02:01.027Z,91.10
2023-04-10T03:04:29.069Z,91.30
2023-04-10T03:06:56.075Z,91.10
2023-04-10T03:09:22.738Z,91.00
2023-04-10T03:11:49.508Z,90.90
2023-04-10T03:14:16.911Z,90.90
2023-04-10T03:16:44.054Z,91.00
2023-04-10T03:19:12.660Z,91.20
2023-04-10T03:21:39.458Z,91.40
2023-04-10T03:24:06.388Z,91.40
2023-04-10T03:26:33.147Z,91.30
2023-04-10T03:29:00.131Z,91.30
2023-04-10T03:31:27.825Z,91.40
2023-04-10T03:33:54.721Z,91.50
2023-04-10T03:36:21.601Z,91.50
2023-04-10T03:38:48.317Z,91.60
2023-04-10T03:41:15.143Z,91.80
2023-04-10T03:43:41.859Z,92.10
2023-04-10T03:46:08.578Z,92.10
2023-04-10T03:48:35.496Z,92.10
2023-04-10T03:51:02.708Z,92.10
2023-04-10T03:53:29.449Z,92.10
2023-04-10T03:55:56.309Z,92.00
2023-04-10T03:58:23.105Z,92.00
2023-04-10T04:00:49.929Z,92.10
2023-04-10T04:03:16.921Z,92.20
2023-04-10T04:05:43.799Z,92.30
2023-04-10T04:08:10.595Z,92.20
2023-04-10T04:10:37.303Z,92.20
2023-04-10T04:13:04.161Z,92.00
2023-04-10T04:15:31.023Z,92.30
2023-04-10T04:17:58.115Z,92.50
2023-04-10T04:20:24.881Z,92.50
2023-04-10T04:22:51.724Z,92.60
2023-04-10T04:25:19.823Z,92.50
2023-04-10T04:27:46.587Z,92.40
2023-04-10T04:30:13.443Z,92.60
2023-04-10T04:32:40.515Z,92.50
2023-04-10T04:35:07.920Z,92.80
2023-04-10T04:37:34.720Z,92.60
2023-04-10T04:40:02.146Z,92.70
2023-04-10T04:42:28.921Z,92.80
2023-04-10T04:44:55.701Z,92.90
2023-04-10T04:47:24.357Z,93.10
2023-04-10T04:49:51.123Z,93.30
2023-04-10T04:52:17.857Z,93.40
2023-04-10T04:54:44.605Z,93.40
2023-04-10T04:57:11.368Z,93.40
2023-04-10T04:59:38.348Z,93.40
2023-04-10T05:02:05.628Z,93.50
2023-04-10T05:04:32.527Z,93.50
2023-04-10T05:06:59.296Z,93.40
2023-04-10T05:09:26.099Z,93.40
2023-04-10T05:11:54.378Z,93.70
2023-04-10T05:14:22.234Z,93.90
2023-04-10T05:16:49.033Z,94.10
2023-04-10T05:19:16.313Z,94.30
2023-04-10T05:21:43.205Z,94.30
2023-04-10T05:24:09.968Z,94.40
2023-04-10T05:26:36.777Z,94.50
2023-04-10T05:29:04.174Z,94.80
2023-04-10T05:31:31.056Z,94.60
2023-04-10T05:33:57.947Z,94.60
2023-04-10T05:36:24.802Z,94.40
2023-04-10T05:38:51.599Z,94.50
2023-04-10T05:41:18.344Z,94.60
2023-04-10T05:43:45.142Z,94.70
2023-04-10T05:46:11.933Z,94.80
2023-04-10T05:48:39.183Z,94.90
2023-04-10T05:51:06.225Z,95.00
2023-04-10T05:53:33.050Z,95.00
2023-04-10T05:55:59.823Z,95.00
2023-04-10T05:58:27.276Z,95.10
2023-04-10T06:00:54.392Z,95.20
2023-04-10T06:03:21.490Z,95.10
2023-04-10T06:05:48.325Z,95.20
2023-04-10T06:08:15.097Z,95.20
2023-04-10T06:10:41.791Z,95.00
2023-04-10T06:13:11.042Z,94.90
2023-04-10T06:15:38.273Z,94.90
2023-04-10T06:18:05.407Z,94.90
2023-04-10T06:20:32.174Z,94.90
2023-04-10T06:22:59.636Z,94.90
2023-04-10T06:25:26.639Z,94.80
2023-04-10T06:27:53.659Z,94.70
2023-04-10T06:30:20.934Z,94.70
2023-04-10T06:32:47.771Z,94.70
2023-04-10T06:35:14.695Z,94.70
2023-04-10T06:37:42.295Z,94.80
2023-04-10T06:40:10.914Z,94.90
2023-04-10T06:42:37.772Z,94.90
2023-04-10T06:45:05.050Z,94.90
2023-04-10T06:47:32.234Z,94.80
2023-04-10T06:49:59.243Z,94.90
2023-04-10T06:52:26.216Z,94.80
2023-04-10T06:54:52.970Z,94.80
2023-04-10T06:57:19.766Z,94.90
2023-04-10T06:59:46.560Z,94.80
2023-04-10T07:02:13.303Z,94.70
2023-04-10T07:04:40.448Z,94.60
2023-04-10T07:07:12.420Z,94.50
2023-04-10T07:09:39.839Z,94.40
2023-04-10T07:12:06.557Z,94.40
2023-04-10T07:14:36.862Z,94.30
2023-04-10T07:17:03.695Z,94.20
2023-04-10T07:19:30.503Z,94.10
2023-04-10T07:21:57.638Z,94.00
2023-04-10T07:24:24.566Z,93.80
2023-04-10T07:26:51.424Z,93.60
2023-04-10T07:29:18.786Z,93.40
2023-04-10T07:31:45.912Z,93.30
2023-04-10T07:34:12.837Z,93.00
2023-04-10T07:36:39.595Z,92.80
2023-04-10T07:39:06.873Z,92.40
2023-04-10T07:41:33.694Z,91.80
2023-04-10T07:44:01.023Z,91.70
2023-04-10T07:46:27.882Z,91.40
2023-04-10T07:48:55.830Z,91.20
2023-04-10T07:51:23.250Z,91.20
2023-04-10T07:53:50.149Z,91.10
2023-04-10T07:56:18.331Z,91.00
2023-04-10T07:58:45.974Z,91.10
2023-04-10T08:01:12.784Z,90.90
2023-04-10T08:03:41.654Z,90.70
2023-04-10T08:06:09.928Z,90.60
2023-04-10T08:08:37.791Z,90.60
2023-04-10T08:11:08.583Z,90.20
2023-04-10T08:13:35.427Z,90.10
2023-04-10T08:16:02.319Z,90.50
2023-04-10T08:18:29.102Z,89.90
2023-04-10T08:20:55.872Z,89.70
2023-04-10T08:23:22.604Z,89.70
2023-04-10T08:25:50.064Z,88.90
2023-04-10T08:28:16.867Z,87.60
2023-04-10T08:30:43.670Z,87.60
2023-04-10T08:33:10.556Z,87.40
2023-04-10T08:35:37.342Z,87.00
2023-04-10T08:40:38.410Z,88.20
2023-04-10T08:43:05.547Z,85.70
2023-04-10T08:45:32.296Z,81.70
2023-04-10T08:48:02.847Z,80.90
2023-04-10T08:50:33.618Z,79.50
2023-04-10T08:53:08.364Z,79.30
2023-04-10T08:55:35.745Z,78.40
2023-04-10T08:58:02.853Z,78.30
2023-04-10T09:00:31.608Z,78.70
2023-04-10T09:03:00.194Z,77.50
2023-04-10T09:05:28.643Z,76.50
2023-04-10T09:07:55.576Z,76.60
2023-04-10T09:10:23.248Z,75.90
2023-04-10T09:12:49.996Z,75.90
2023-04-10T09:15:16.801Z,73.90
2023-04-10T09:18:03.758Z,73.80
2023-04-10T09:20:31.947Z,72.50
2023-04-10T09:22:58.856Z,73.10
2023-04-10T09:25:34.684Z,71.90
2023-04-10T09:28:03.801Z,72.50
2023-04-10T09:30:41.644Z,72.80
2023-04-10T09:33:27.993Z,72.30
2023-04-10T09:35:58.289Z,70.90
2023-04-10T09:38:25.773Z,71.80
2023-04-10T09:40:54.426Z,71.50
2023-04-10T09:43:27.407Z,69.90
2023-04-10T09:45:57.070Z,70.50
2023-04-10T09:48:25.427Z,69.90
2023-04-10T09:50:52.388Z,70.10
2023-04-10T09:53:20.618Z,69.20
2023-04-10T09:55:49.493Z,68.90
2023-04-10T09:58:17.665Z,66.60
2023-04-10T10:00:46.644Z,66.20
2023-04-10T10:03:16.021Z,66.00
2023-04-10T10:05:53.073Z,67.00
2023-04-10T10:08:20.636Z,66.60
2023-04-10T10:10:53.604Z,64.30
2023-04-10T10:13:36.161Z,64.70
2023-04-10T10:16:32.087Z,64.30
2023-04-10T10:19:13.101Z,64.30
2023-04-10T10:21:41.737Z,63.30
2023-04-10T10:24:09.637Z,63.80
2023-04-10T10:26:39.483Z,62.20
2023-04-10T10:29:10.863Z,63.20
2023-04-10T10:31:38.367Z,61.70
2023-04-10T10:34:07.590Z,63.90
2023-04-10T10:36:38.165Z,62.00
2023-04-10T10:39:36.697Z,62.30
2023-04-10T10:42:25.616Z,61.10
2023-04-10T10:45:02.354Z,61.80
2023-04-10T10:47:32.417Z,60.80
2023-04-10T10:50:00.967Z,62.50
2023-04-10T10:52:41.239Z,62.70
2023-04-10T10:55:26.028Z,60.10
2023-04-10T10:57:54.176Z,58.20
2023-04-10T11:00:22.500Z,59.50
2023-04-10T11:03:07.912Z,59.00
2023-04-10T11:05:57.188Z,58.50
2023-04-10T11:08:32.805Z,59.40
2023-04-10T11:11:07.407Z,59.00
2023-04-10T11:13:38.992Z,58.80
2023-04-10T11:16:07.715Z,58.80
2023-04-10T11:18:55.998Z,56.70
2023-04-10T11:21:29.777Z,57.00
2023-04-10T11:23:56.520Z,57.50
2023-04-10T11:26:38.826Z,56.40
2023-04-10T11:29:26.561Z,56.40
2023-04-10T11:32:01.593Z,55.50
2023-04-10T11:34:30.706Z,54.80
2023-04-10T11:36:57.589Z,53.60
2023-04-10T11:39:26.494Z,54.00
2023-04-10T11:41:54.556Z,52.60
2023-04-10T11:44:39.538Z,53.50
2023-04-10T11:47:06.774Z,52.60
2023-04-10T11:49:34.942Z,51.30
2023-04-10T11:52:01.800Z,51.80
2023-04-10T11:54:29.659Z,51.30
2023-04-10T11:57:04.931Z,51.20
2023-04-10T11:59:33.206Z,51.30
2023-04-10T12:02:11.689Z,50.50
2023-04-10T12:04:38.827Z,50.20
2023-04-10T12:07:06.156Z,51.30
2023-04-10T12:09:32.892Z,50.00
2023-04-10T12:12:07.706Z,48.30
2023-04-10T12:14:39.843Z,45.00
2023-04-10T12:17:08.395Z,44.90
2023-04-10T12:19:36.453Z,44.50
2023-04-10T12:22:03.421Z,44.50
2023-04-10T12:24:54.279Z,44.80
2023-04-10T12:27:28.023Z,43.10
2023-04-10T12:29:59.113Z,43.40
2023-04-10T12:32:27.629Z,43.30
2023-04-10T12:35:02.958Z,44.00
2023-04-10T12:37:54.430Z,42.80
2023-04-10T12:40:21.536Z,41.80
2023-04-10T12:42:48.360Z,41.50
2023-04-10T12:45:15.693Z,42.30
2023-04-10T12:47:53.838Z,42.90
2023-04-10T12:50:21.208Z,42.10
2023-04-10T12:53:03.685Z,42.00
2023-04-10T12:55:31.236Z,41.30
2023-04-10T12:57:58.063Z,42.30
2023-04-10T13:00:26.292Z,42.40
2023-04-10T13:02:53.294Z,43.10
2023-04-10T13:05:21.675Z,42.10
2023-04-10T13:07:52.795Z,43.30
2023-04-10T13:10:20.170Z,42.80
2023-04-10T13:12:47.339Z,43.10
2023-04-10T13:15:14.091Z,43.80
2023-04-10T13:17:41.836Z,43.70
2023-04-10T13:20:10.489Z,42.90
2023-04-10T13:22:37.493Z,43.50
2023-04-10T13:25:05.249Z,43.90
2023-04-10T13:27:32.065Z,43.60
2023-04-10T13:29:58.948Z,43.80
2023-04-10T13:32:25.757Z,43.90
2023-04-10T13:34:54.753Z,43.80
2023-04-10T13:37:21.575Z,43.90
2023-04-10T13:39:48.370Z,44.30
2023-04-10T13:42:15.533Z,43.80
2023-04-10T13:44:42.349Z,43.40
2023-04-10T13:47:09.421Z,42.50
2023-04-10T13:49:36.246Z,42.10
2023-04-10T13:52:03.068Z,42.50
2023-04-10T13:54:29.846Z,43.50
2023-04-10T13:56:57.541Z,43.90
2023-04-10T13:59:24.317Z,43.90
2023-04-10T14:01:52.555Z,43.90
2023-04-10T14:04:19.769Z,43.40
2023-04-10T14:06:46.536Z,43.70
2023-04-10T14:09:13.306Z,43.40
2023-04-10T14:11:40.094Z,44.10
2023-04-10T14:14:06.868Z,45.00
2023-04-10T14:16:33.634Z,45.00
2023-04-10T14:19:00.518Z,44.10
2023-04-10T14:21:27.563Z,44.20
2023-04-10T14:23:54.341Z,44.20
2023-04-10T14:26:21.588Z,44.20
2023-04-10T14:28:48.367Z,44.20
2023-04-10T14:31:15.499Z,44.60
2023-04-10T14:33:42.269Z,44.50
2023-04-10T14:36:09.505Z,43.30
2023-04-10T14:38:36.970Z,44.10
2023-04-10T14:41:03.802Z,44.40
2023-04-10T14:43:30.563Z,44.90
2023-04-10T14:45:57.303Z,44.20
2023-04-10T14:48:24.177Z,44.10
2023-04-10T14:50:50.915Z,44.00
2023-04-10T14:53:17.706Z,44.70
2023-04-10T14:55:44.455Z,45.10
2023-04-10T14:58:11.364Z,45.60
2023-04-10T15:00:38.237Z,45.10
2023-04-10T15:03:06.526Z,45.00
2023-04-10T15:05:33.495Z,45.10
2023-04-10T15:08:00.289Z,45.30
2023-04-10T15:10:29.776Z,45.20
2023-04-10T15:12:56.600Z,45.80
2023-04-10T15:15:23.337Z,45.10
2023-04-10T15:17:50.256Z,45.60
2023-04-10T15:20:17.082Z,45.50
2023-04-10T15:22:45.026Z,45.40
2023-04-10T15:25:14.888Z,44.70
2023-04-10T15:27:41.784Z,45.30
2023-04-10T15:30:08.800Z,45.10
2023-04-10T15:32:38.059Z,45.50
2023-04-10T15:35:05.588Z,45.70
2023-04-10T15:37:34.435Z,45.40
2023-04-10T15:40:01.193Z,45.40
2023-04-10T15:42:28.171Z,45.30
2023-04-10T15:44:54.879Z,45.50
2023-04-10T15:47:21.721Z,45.40
2023-04-10T15:49:48.560Z,46.00
2023-04-10T15:52:15.455Z,46.30
2023-04-10T15:54:43.489Z,46.20
2023-04-10T15:57:10.557Z,46.80
2023-04-10T15:59:37.292Z,46.70
2023-04-10T16:02:04.185Z,46.90
2023-04-10T16:04:31.820Z,47.20
2023-04-10T16:06:58.900Z,47.40
2023-04-10T16:09:26.828Z,47.70
2023-04-10T16:11:54.713Z,47.70
2023-04-10T16:14:22.438Z,47.80
2023-04-10T16:16:49.502Z,48.10
2023-04-10T16:19:16.222Z,48.40
2023-04-10T16:21:43.001Z,48.90
2023-04-10T16:24:09.833Z,49.00
2023-04-10T16:26:36.609Z,49.10
2023-04-10T16:29:03.361Z,49.20
2023-04-10T16:31:30.263Z,49.60
2023-04-10T16:33:57.106Z,49.90
2023-04-10T16:36:23.917Z,50.30
2023-04-10T16:38:50.879Z,50.20
2023-04-10T16:41:18.549Z,49.80
2023-04-10T16:43:45.648Z,50.00
2023-04-10T16:46:12.638Z,50.10
2023-04-10T16:48:39.507Z,50.30
2023-04-10T16:51:07.036Z,50.70
2023-04-10T16:53:36.121Z,50.60
2023-04-10T16:56:04.390Z,50.70
2023-04-10T16:58:33.433Z,50.70
2023-04-10T17:01:00.697Z,50.60
2023-04-10T17:03:27.560Z,50.50
2023-04-10T17:05:54.361Z,50.80
2023-04-10T17:08:21.197Z,50.90
2023-04-10T17:10:47.871Z,51.10
2023-04-10T17:13:14.754Z,51.10
2023-04-10T17:15:41.532Z,51.20
2023-04-10T17:18:08.455Z,51.20
2023-04-10T17:20:38.082Z,51.40
2023-04-10T17:23:04.907Z,51.70
2023-04-10T17:25:31.743Z,51.60
2023-04-10T17:27:58.481Z,51.60
2023-04-10T17:30:25.349Z,51.60
2023-04-10T17:32:52.933Z,51.70
2023-04-10T17:35:19.730Z,51.80
2023-04-10T17:37:46.513Z,51.90
2023-04-10T17:40:13.477Z,52.10
2023-04-10T17:42:40.340Z,52.00
2023-04-10T17:45:07.561Z,52.10
2023-04-10T17:47:35.363Z,52.10
2023-04-10T17:50:05.206Z,52.20
2023-04-10T17:52:31.978Z,52.30
2023-04-10T17:55:01.573Z,52.50
2023-04-10T17:57:28.724Z,52.70
2023-04-10T17:59:55.549Z,52.90
2023-04-10T18:02:22.337Z,52.90
2023-04-10T18:04:49.126Z,53.10
2023-04-10T18:07:15.916Z,53.20
2023-04-10T18:09:42.680Z,53.40
2023-04-10T18:12:10.708Z,53.40
2023-04-10T18:14:37.562Z,53.50
2023-04-10T18:17:04.393Z,53.70
2023-04-10T18:19:31.244Z,53.80
2023-04-10T18:21:58.084Z,53.70
2023-04-10T18:24:24.901Z,53.80
2023-04-10T18:26:51.662Z,53.90
2023-04-10T18:29:18.543Z,54.00
2023-04-10T18:31:45.306Z,54.00
2023-04-10T18:34:12.206Z,54.20
2023-04-10T18:36:39.108Z,54.20
2023-04-10T18:39:06.030Z,54.30
2023-04-10T18:41:32.937Z,54.40
2023-04-10T18:44:05.057Z,54.70
2023-04-10T18:46:33.337Z,54.70
2023-04-10T18:49:01.268Z,54.60
2023-04-10T18:51:28.453Z,54.50
2023-04-10T18:53:55.991Z,54.50
2023-04-10T18:56:23.203Z,54.60
2023-04-10T18:58:50.444Z,54.20
2023-04-10T19:01:17.941Z,54.50
2023-04-10T19:03:47.767Z,54.30
2023-04-10T19:06:17.860Z,54.50
2023-04-10T19:08:44.748Z,53.80
2023-04-10T19:11:12.290Z,53.70
2023-04-10T19:13:39.214Z,53.50
2023-04-10T19:16:06.425Z,53.60
2023-04-10T19:18:33.359Z,53.70
2023-04-10T19:21:00.371Z,53.40
2023-04-10T19:23:27.161Z,53.00
2023-04-10T19:25:54.859Z,53.30
2023-04-10T19:28:25.616Z,53.50
2023-04-10T19:30:52.806Z,53.50
2023-04-10T19:33:20.494Z,53.30
2023-04-10T19:35:47.379Z,53.00
2023-04-10T19:38:14.206Z,53.20
2023-04-10T19:40:41.103Z,53.90
2023-04-10T19:43:08.018Z,53.20
2023-04-10T19:45:36.958Z,53.00
2023-04-10T19:48:04.551Z,53.20
2023-04-10T19:50:31.587Z,53.50
2023-04-10T19:52:59.476Z,54.00
2023-04-10T19:55:26.776Z,53.80
2023-04-10T19:57:54.706Z,53.60
2023-04-10T20:00:21.555Z,53.60
2023-04-10T20:02:48.765Z,53.60
2023-04-10T20:05:15.800Z,54.00
2023-04-10T20:07:42.715Z,53.30
2023-04-10T20:10:09.816Z,53.40
2023-04-10T20:12:36.664Z,53.20
2023-04-10T20:15:04.580Z,53.80
2023-04-10T20:17:31.680Z,53.60
2023-04-10T20:19:59.767Z,53.60
2023-04-10T20:22:26.678Z,53.80
2023-04-10T20:24:53.487Z,53.90
2023-04-10T20:27:20.428Z,54.30
2023-04-10T20:29:47.293Z,54.40
2023-04-10T20:32:14.147Z,54.70
2023-04-10T20:34:40.962Z,55.20
2023-04-10T20:37:07.851Z,55.60
2023-04-10T20:39:34.616Z,56.30
2023-04-10T20:42:01.490Z,57.30
2023-04-10T20:44:28.392Z,56.90
2023-04-10T20:46:55.250Z,57.50
2023-04-10T20:51:49.689Z,59.00
2023-04-10T20:54:19.049Z,59.30
2023-04-10T20:56:46.630Z,59.70
2023-04-10T20:59:13.485Z,60.20
2023-04-10T21:01:40.327Z,60.40
2023-04-10T21:04:07.411Z,60.60
2023-04-10T21:06:34.382Z,61.00
2023-04-10T21:09:01.434Z,61.30
2023-04-10T21:11:28.292Z,61.60
2023-04-10T21:13:55.165Z,62.00
2023-04-10T21:16:22.000Z,62.10
2023-04-10T21:18:48.887Z,62.10
2023-04-10T21:21:16.052Z,62.40
2023-04-10T21:23:42.789Z,62.20
2023-04-10T21:26:12.529Z,62.10
2023-04-10T21:28:39.360Z,62.40
2023-04-10T21:31:06.237Z,62.30
2023-04-10T21:33:33.204Z,62.40
2023-04-10T21:36:00.192Z,62.20
2023-04-10T21:38:29.985Z,62.20
2023-04-10T21:40:57.383Z,62.60
2023-04-10T21:43:24.293Z,62.80
2023-04-10T21:45:51.216Z,62.70
2023-04-10T21:48:19.679Z,62.70
2023-04-10T21:50:47.252Z,62.50
2023-04-10T21:53:14.102Z,62.60
2023-04-10T21:55:40.906Z,62.70
2023-04-10T21:58:10.719Z,62.50
2023-04-10T22:00:41.533Z,62.50
2023-04-10T22:03:09.907Z,62.70
2023-04-10T22:05:36.738Z,62.90
2023-04-10T22:08:03.528Z,62.90
2023-04-10T22:10:30.326Z,63.10
2023-04-10T22:12:57.241Z,63.10
2023-04-10T22:15:24.051Z,63.10
2023-04-10T22:17:52.065Z,63.30
2023-04-10T22:20:20.022Z,63.20
2023-04-10T22:22:46.923Z,64.40
2023-04-10T22:25:16.113Z,63.70
2023-04-10T22:27:42.846Z,63.80
2023-04-10T22:30:10.423Z,63.80
2023-04-10T22:32:37.416Z,63.80
2023-04-10T22:35:04.953Z,64.30
2023-04-10T22:37:31.723Z,64.50
2023-04-10T22:40:02.751Z,64.60
2023-04-10T22:42:31.661Z,65.00
2023-04-10T22:44:58.860Z,65.10
2023-04-10T22:47:26.954Z,65.30
2023-04-10T22:49:53.668Z,65.30
2023-04-10T22:52:20.505Z,65.20
2023-04-10T22:54:47.323Z,65.30
2023-04-10T22:57:14.069Z,65.20
2023-04-10T22:59:40.897Z,65.30
2023-04-10T23:02:07.851Z,65.20
2023-04-10T23:04:35.067Z,65.30
2023-04-10T23:07:01.812Z,65.50
2023-04-10T23:09:28.597Z,65.70
2023-04-10T23:11:55.335Z,65.90
2023-04-10T23:14:22.124Z,66.50
2023-04-10T23:16:49.633Z,66.90
2023-04-10T23:19:17.233Z,68.00
2023-04-10T23:21:44.295Z,67.50
2023-04-10T23:24:11.145Z,67.90
2023-04-10T23:26:37.923Z,68.30
2023-04-10T23:29:04.884Z,68.10
2023-04-10T23:31:31.671Z,68.10
2023-04-10T23:33:58.525Z,68.20
2023-04-10T23:36:25.675Z,68.30
2023-04-10T23:38:52.709Z,68.50
2023-04-10T23:41:20.249Z,68.80
2023-04-10T23:43:47.153Z,68.80
2023-04-10T23:46:13.829Z,68.90
2023-04-10T23:48:40.787Z,69.50
2023-04-10T23:51:08.862Z,69.70
2023-04-10T23:53:35.977Z,69.90
2023-04-10T23:56:02.788Z,70.30
2023-04-10T23:58:29.580Z,70.50
